Time;durP1;ratioP1;P1;durP2;ratioP2;P2;SDS_P1;SDS_P2;PMS_P1;PMS_P2;Temp;Humidity;BMP_temperature;BMP_pressure;BME280_temperature;BME280_humidity;BME280_pressure;Samples;Min_cycle;Max_cycle;Signal;HPM_P1;HPM_P2
2023/06/13 00:00:05;;;;;;;1999.90;999.90;;;14.60;94.50;;;;;;5054602;28;20044;-72
2023/06/13 00:02:30;;;;;;;1999.90;999.90;;;14.70;93.70;;;;;;5054221;28;20045;-72
2023/06/13 00:04:57;;;;;;;1999.90;999.90;;;14.90;92.70;;;;;;5054406;28;20430;-72
2023/06/13 00:07:23;;;;;;;1999.90;999.90;;;15.10;91.60;;;;;;5054825;28;20034;-72
2023/06/13 00:09:49;;;;;;;1999.90;999.90;;;15.50;90.50;;;;;;5053538;28;20029;-73
2023/06/13 00:12:20;;;;;;;1999.90;999.90;;;15.70;90.00;;;;;;5054607;28;20515;-72
2023/06/13 00:14:50;;;;;;;1999.90;999.90;;;16.00;88.60;;;;;;5054202;28;20034;-71
2023/06/13 00:17:16;;;;;;;1999.90;999.90;;;16.10;88.30;;;;;;5054758;28;20497;-72
2023/06/13 00:19:43;;;;;;;1999.90;999.90;;;16.20;87.70;;;;;;5053963;28;20525;-72
2023/06/13 00:22:13;;;;;;;1999.90;999.90;;;16.20;88.00;;;;;;5052882;28;20200;-72
2023/06/13 00:24:42;;;;;;;1999.90;999.90;;;16.20;86.40;;;;;;5052672;28;20112;-73
2023/06/13 00:27:07;;;;;;;1999.90;999.90;;;16.30;86.30;;;;;;5054354;28;20047;-72
2023/06/13 00:29:33;;;;;;;1999.90;999.90;;;16.30;86.30;;;;;;5054485;28;20064;-72
2023/06/13 00:31:59;;;;;;;1999.90;999.90;;;16.40;85.50;;;;;;5053752;28;20080;-72
2023/06/13 00:34:24;;;;;;;1999.90;999.90;;;16.40;86.30;;;;;;5053982;28;20515;-72
2023/06/13 00:36:50;;;;;;;1999.90;999.90;;;16.50;85.20;;;;;;5054423;28;20087;-72
2023/06/13 00:39:15;;;;;;;1999.90;999.90;;;16.30;86.50;;;;;;5054717;28;20474;-72
2023/06/13 00:41:41;;;;;;;1999.90;999.90;;;16.40;86.20;;;;;;5054078;28;20052;-73
2023/06/13 00:44:07;;;;;;;1999.90;999.90;;;16.40;86.30;;;;;;5053858;28;20053;-72
2023/06/13 00:46:34;;;;;;;1999.90;999.90;;;16.40;86.00;;;;;;5054413;28;20037;-72
2023/06/13 00:49:01;;;;;;;1999.90;999.90;;;16.30;85.80;;;;;;5053961;28;20041;-72
2023/06/13 00:51:28;;;;;;;1999.90;999.90;;;16.30;85.20;;;;;;5053896;28;20041;-72
2023/06/13 00:53:54;;;;;;;1999.90;999.90;;;16.40;85.50;;;;;;5053269;28;20411;-73
2023/06/13 00:56:20;;;;;;;1999.90;999.90;;;16.50;85.20;;;;;;5053881;28;20034;-73
2023/06/13 00:58:45;;;;;;;1999.90;999.90;;;16.40;85.20;;;;;;5054123;28;20526;-73
2023/06/13 01:01:13;;;;;;;1999.90;999.90;;;16.40;85.40;;;;;;5053600;28;20064;-72
2023/06/13 01:03:39;;;;;;;1999.90;999.90;;;16.40;86.00;;;;;;5053598;28;20061;-73
2023/06/13 01:06:04;;;;;;;1999.90;999.90;;;16.30;85.40;;;;;;5052109;28;20403;-72
2023/06/13 01:08:30;;;;;;;1999.90;999.90;;;16.30;85.50;;;;;;5053936;28;20108;-72
2023/06/13 01:11:12;;;;;;;1999.90;999.90;;;16.30;86.00;;;;;;5053968;28;20034;-72
2023/06/13 01:13:50;;;;;;;1999.90;999.90;;;16.30;86.10;;;;;;5053815;28;20117;-73
2023/06/13 01:16:33;;;;;;;1999.90;999.90;;;16.20;86.30;;;;;;5052644;28;20077;-71
2023/06/13 01:19:03;;;;;;;1999.90;999.90;;;16.20;86.30;;;;;;5053394;28;20037;-72
2023/06/13 01:21:32;;;;;;;1999.90;999.90;;;16.10;86.00;;;;;;5053274;28;20033;-72
2023/06/13 01:24:27;;;;;;;1999.90;999.90;;;16.10;87.10;;;;;;5053447;28;20033;-72
2023/06/13 01:26:57;;;;;;;1999.90;999.90;;;16.00;86.60;;;;;;5052324;28;20073;-72
2023/06/13 01:29:23;;;;;;;1999.90;999.90;;;16.00;86.60;;;;;;5053354;28;20061;-72
2023/06/13 01:31:55;;;;;;;1999.90;999.90;;;15.90;86.60;;;;;;5053671;28;20515;-73
2023/06/13 01:34:21;;;;;;;1999.90;999.90;;;16.00;86.70;;;;;;5052941;28;20103;-73
2023/06/13 01:36:47;;;;;;;1999.90;999.90;;;16.00;86.80;;;;;;5053410;28;20033;-72
2023/06/13 01:39:13;;;;;;;1999.90;999.90;;;16.00;86.60;;;;;;5053595;28;20142;-73
2023/06/13 01:41:39;;;;;;;1999.90;999.90;;;16.00;86.50;;;;;;5051839;28;20048;-73
2023/06/13 01:44:05;;;;;;;1999.90;999.90;;;16.00;86.60;;;;;;5053307;28;20033;-73
2023/06/13 01:46:42;;;;;;;1999.90;999.90;;;15.90;86.70;;;;;;5051918;28;20068;-73
2023/06/13 01:49:46;;;;;;;1999.90;999.90;;;15.90;86.70;;;;;;5053412;28;20037;-72
2023/06/13 01:52:19;;;;;;;1999.90;999.90;;;15.90;86.70;;;;;;5053168;28;20037;-73
2023/06/13 01:54:52;;;;;;;1999.90;999.90;;;15.80;86.90;;;;;;5052895;28;20045;-72
2023/06/13 01:57:24;;;;;;;1999.90;999.90;;;15.80;87.00;;;;;;5053890;28;20046;-73
2023/06/13 01:59:55;;;;;;;1999.90;999.90;;;15.80;86.80;;;;;;5053478;28;20108;-72
2023/06/13 02:02:21;;;;;;;1999.90;999.90;;;15.70;87.90;;;;;;5053272;28;20124;-72
2023/06/13 02:04:49;;;;;;;1999.90;999.90;;;15.60;87.50;;;;;;5053343;28;20088;-73
2023/06/13 02:07:14;;;;;;;1999.90;999.90;;;15.60;88.60;;;;;;5055196;28;20041;-72
2023/06/13 02:09:40;;;;;;;1999.90;999.90;;;15.50;87.70;;;;;;5056830;28;20365;-72
2023/06/13 02:12:06;;;;;;;1999.90;999.90;;;15.40;88.60;;;;;;5056580;28;20037;-73
2023/06/13 02:14:32;;;;;;;1999.90;999.90;;;15.40;88.50;;;;;;5056003;28;20021;-72
2023/06/13 02:16:59;;;;;;;1999.90;999.90;;;15.30;89.00;;;;;;5055025;28;20045;-72
2023/06/13 02:19:25;;;;;;;1999.90;999.90;;;15.30;89.20;;;;;;5055920;28;20037;-72
2023/06/13 02:21:51;;;;;;;1999.90;999.90;;;15.20;89.60;;;;;;5056106;28;20048;-72
2023/06/13 02:24:18;;;;;;;1999.90;999.90;;;15.10;90.00;;;;;;5056300;28;20505;-72
2023/06/13 02:26:46;;;;;;;1999.90;999.90;;;15.10;89.90;;;;;;5056157;28;20041;-72
2023/06/13 02:29:12;;;;;;;1999.90;999.90;;;14.90;90.10;;;;;;5056274;28;20084;-72
2023/06/13 02:31:38;;;;;;;1999.90;999.90;;;14.90;90.30;;;;;;5055323;28;20093;-72
2023/06/13 02:34:04;;;;;;;1999.90;999.90;;;14.80;90.40;;;;;;5055814;28;20483;-72
2023/06/13 02:36:29;;;;;;;1999.90;999.90;;;14.70;90.50;;;;;;5055830;28;20025;-74
2023/06/13 02:38:55;;;;;;;1999.90;999.90;;;14.60;91.20;;;;;;5056252;28;20042;-72
2023/06/13 02:41:21;;;;;;;1999.90;999.90;;;14.50;92.20;;;;;;5056053;28;20037;-72
2023/06/13 02:43:46;;;;;;;1999.90;999.90;;;14.40;91.80;;;;;;5056277;28;20084;-72
2023/06/13 02:46:12;;;;;;;1999.90;999.90;;;14.30;93.10;;;;;;5055137;28;20025;-70
2023/06/13 02:48:37;;;;;;;1999.90;999.90;;;14.10;92.40;;;;;;5055885;28;20052;-72
2023/06/13 02:51:04;;;;;;;1999.90;999.90;;;14.00;92.80;;;;;;5055943;28;20040;-72
2023/06/13 02:53:30;;;;;;;1999.90;999.90;;;13.90;93.30;;;;;;5056023;28;20116;-72
2023/06/13 02:55:55;;;;;;;1999.90;999.90;;;13.70;93.00;;;;;;5055471;28;20118;-72
2023/06/13 02:58:21;;;;;;;1999.90;999.90;;;13.60;93.60;;;;;;5056173;28;20041;-72
2023/06/13 03:00:48;;;;;;;1999.90;999.90;;;13.60;93.60;;;;;;5055540;28;20044;-73
2023/06/13 03:03:16;;;;;;;1999.90;999.90;;;13.60;93.90;;;;;;5055478;28;20643;-72
2023/06/13 03:05:44;;;;;;;1999.90;999.90;;;13.40;93.80;;;;;;5054078;28;20036;-72
2023/06/13 03:08:11;;;;;;;1999.90;999.90;;;13.40;94.10;;;;;;5055237;28;20038;-72
2023/06/13 03:10:37;;;;;;;1999.90;999.90;;;13.30;94.60;;;;;;5055607;28;20030;-72
2023/06/13 03:13:02;;;;;;;1999.90;999.90;;;13.20;94.60;;;;;;5055359;28;20037;-72
2023/06/13 03:15:28;;;;;;;1999.90;999.90;;;13.20;94.60;;;;;;5055046;28;20060;-71
2023/06/13 03:17:53;;;;;;;1999.90;999.90;;;13.20;94.60;;;;;;5054861;28;20041;-72
2023/06/13 03:20:20;;;;;;;1999.90;999.90;;;13.10;94.80;;;;;;5055568;28;20072;-72
2023/06/13 03:22:46;;;;;;;1999.90;999.90;;;13.00;94.80;;;;;;5055341;28;20030;-72
2023/06/13 03:25:12;;;;;;;1999.90;999.90;;;13.00;95.40;;;;;;5055281;28;20037;-72
2023/06/13 03:27:37;;;;;;;1999.90;999.90;;;12.90;95.50;;;;;;5055045;28;20064;-72
2023/06/13 03:30:04;;;;;;;1999.90;999.90;;;12.90;95.50;;;;;;5053612;28;20034;-71
2023/06/13 03:32:29;;;;;;;1999.90;999.90;;;12.90;95.30;;;;;;5054904;28;20086;-72
2023/06/13 03:34:55;;;;;;;1999.90;999.90;;;12.90;95.40;;;;;;5055188;28;20609;-70
2023/06/13 03:37:21;;;;;;;1999.90;999.90;;;12.90;95.50;;;;;;5055501;28;20447;-72
2023/06/13 03:39:47;;;;;;;1999.90;999.90;;;12.90;96.00;;;;;;5053390;28;20150;-72
2023/06/13 03:42:12;;;;;;;1999.90;999.90;;;12.90;96.20;;;;;;5054554;28;20041;-72
2023/06/13 03:44:38;;;;;;;1999.90;999.90;;;12.80;96.00;;;;;;5054629;28;20506;-72
2023/06/13 03:47:03;;;;;;;1999.90;999.90;;;12.80;96.40;;;;;;5053507;28;20048;-72
2023/06/13 03:49:29;;;;;;;1999.90;999.90;;;12.80;96.10;;;;;;5053312;28;20044;-72
2023/06/13 03:51:55;;;;;;;1999.90;999.90;;;12.70;96.30;;;;;;5054258;28;20044;-72
2023/06/13 03:54:21;;;;;;;1999.90;999.90;;;12.70;96.90;;;;;;5054803;28;20041;-72
2023/06/13 03:56:47;;;;;;;1999.90;999.90;;;12.70;97.00;;;;;;5054710;28;20045;-72
2023/06/13 03:59:13;;;;;;;1999.90;999.90;;;12.70;97.20;;;;;;5055107;28;20796;-72
2023/06/13 04:01:41;;;;;;;1999.90;999.90;;;12.80;97.40;;;;;;5053708;28;20037;-72
2023/06/13 04:04:07;;;;;;;1999.90;999.90;;;12.70;97.00;;;;;;5054963;28;20037;-72
2023/06/13 04:06:33;;;;;;;1999.90;999.90;;;12.70;97.30;;;;;;5054575;28;20037;-72
2023/06/13 04:08:58;;;;;;;1999.90;999.90;;;12.70;97.60;;;;;;5054867;28;20037;-72
2023/06/13 04:11:24;;;;;;;1999.90;999.90;;;12.80;97.40;;;;;;5054218;28;20037;-71
2023/06/13 04:13:50;;;;;;;1999.90;999.90;;;12.70;97.20;;;;;;5054649;28;20121;-72
2023/06/13 04:16:15;;;;;;;1999.90;999.90;;;12.70;98.30;;;;;;5054476;28;20042;-72
2023/06/13 04:18:42;;;;;;;1999.90;999.90;;;12.70;97.80;;;;;;5054119;28;20048;-72
2023/06/13 04:21:08;;;;;;;1999.90;999.90;;;12.70;97.60;;;;;;5054302;28;20546;-70
2023/06/13 04:23:33;;;;;;;1999.90;999.90;;;12.60;97.40;;;;;;5052920;28;20046;-72
2023/06/13 04:26:02;;;;;;;1999.90;999.90;;;12.70;97.10;;;;;;5054374;28;20038;-72
2023/06/13 04:28:29;;;;;;;1999.90;999.90;;;12.80;96.80;;;;;;5052118;28;20033;-72
2023/06/13 04:30:56;;;;;;;1999.90;999.90;;;13.00;96.60;;;;;;5054111;28;20037;-70
2023/06/13 04:33:24;;;;;;;1999.90;999.90;;;13.10;96.40;;;;;;5054242;28;20087;-72
2023/06/13 04:35:49;;;;;;;1999.90;999.90;;;13.10;95.90;;;;;;5054177;28;20037;-72
2023/06/13 04:38:20;;;;;;;1999.90;999.90;;;13.30;95.30;;;;;;5054546;28;20030;-72
2023/06/13 04:40:45;;;;;;;1999.90;999.90;;;13.40;95.50;;;;;;5054083;28;20590;-72
2023/06/13 04:43:14;;;;;;;1999.90;999.90;;;13.50;95.50;;;;;;5053908;28;20051;-72
2023/06/13 04:45:42;;;;;;;1999.90;999.90;;;13.50;95.80;;;;;;5053675;28;20113;-71
2023/06/13 04:48:09;;;;;;;1999.90;999.90;;;13.50;95.90;;;;;;5054353;28;20069;-72
2023/06/13 04:50:37;;;;;;;1999.90;999.90;;;13.50;96.70;;;;;;5053950;28;20112;-72
2023/06/13 04:53:07;;;;;;;1999.90;999.90;;;13.50;96.40;;;;;;5053736;28;20100;-72
2023/06/13 04:55:33;;;;;;;1999.90;999.90;;;13.60;96.30;;;;;;5052677;28;20072;-72
2023/06/13 04:57:59;;;;;;;1999.90;999.90;;;13.50;96.10;;;;;;5054077;28;20112;-72
2023/06/13 05:00:25;;;;;;;1999.90;999.90;;;13.60;95.80;;;;;;5053977;28;20060;-72
2023/06/13 05:02:51;;;;;;;1999.90;999.90;;;13.70;95.60;;;;;;5054242;28;20065;-74
2023/06/13 05:05:18;;;;;;;1999.90;999.90;;;13.90;94.90;;;;;;5054425;28;20456;-74
2023/06/13 05:07:44;;;;;;;1999.90;999.90;;;14.10;94.80;;;;;;5053999;28;20117;-74
2023/06/13 05:10:09;;;;;;;1999.90;999.90;;;14.30;93.90;;;;;;5051237;28;20529;-74
2023/06/13 05:12:35;;;;;;;1999.90;999.90;;;14.60;93.80;;;;;;5054170;28;20045;-74
2023/06/13 05:15:01;;;;;;;1999.90;999.90;;;14.70;93.10;;;;;;5051511;28;20037;-74
2023/06/13 05:17:27;;;;;;;1999.90;999.90;;;14.90;93.00;;;;;;5044825;28;20463;-77
2023/06/13 05:19:54;;;;;;;1999.90;999.90;;;15.00;93.00;;;;;;5050629;28;20080;-75
2023/06/13 05:22:20;;;;;;;1999.90;999.90;;;15.10;92.70;;;;;;5054901;28;20483;-74
2023/06/13 05:24:45;;;;;;;1999.90;999.90;;;15.20;92.50;;;;;;5055932;28;20042;-74
2023/06/13 05:27:11;;;;;;;1999.90;999.90;;;15.30;91.90;;;;;;5056106;28;20475;-75
2023/06/13 05:29:38;;;;;;;1999.90;999.90;;;15.40;91.40;;;;;;5054845;28;20499;-74
2023/06/13 05:32:03;;;;;;;1999.90;999.90;;;15.50;91.00;;;;;;5054112;28;20483;-75
2023/06/13 05:34:31;;;;;;;1999.90;999.90;;;15.70;90.50;;;;;;5053938;28;20034;-75
2023/06/13 05:36:56;;;;;;;1999.90;999.90;;;15.80;90.30;;;;;;5053602;28;20092;-74
2023/06/13 05:39:22;;;;;;;1999.90;999.90;;;15.90;90.40;;;;;;5054111;28;20096;-73
2023/06/13 05:41:48;;;;;;;1999.90;999.90;;;16.10;90.00;;;;;;5055741;28;20032;-75
2023/06/13 05:44:13;;;;;;;1999.90;999.90;;;16.10;89.80;;;;;;5055796;28;20037;-75
2023/06/13 05:46:39;;;;;;;1999.90;999.90;;;16.30;88.80;;;;;;5055921;28;20438;-73
2023/06/13 05:49:05;;;;;;;1999.90;999.90;;;16.30;87.80;;;;;;5057950;28;20060;-73
2023/06/13 05:51:31;;;;;;;1999.90;999.90;;;16.40;86.90;;;;;;5057485;28;20026;-75
2023/06/13 05:53:57;;;;;;;1999.90;999.90;;;16.60;86.60;;;;;;5057078;28;20489;-76
2023/06/13 05:56:22;;;;;;;1999.90;999.90;;;16.70;84.90;;;;;;5057105;28;20029;-75
2023/06/13 05:58:49;;;;;;;1999.90;999.90;;;16.70;86.10;;;;;;5057040;28;20073;-74
2023/06/13 06:01:14;;;;;;;1999.90;999.90;;;16.80;84.70;;;;;;5056746;28;20107;-75
2023/06/13 06:03:40;;;;;;;1999.90;999.90;;;16.90;84.90;;;;;;5056984;28;20041;-72
2023/06/13 06:06:06;;;;;;;1999.90;999.90;;;17.00;84.60;;;;;;5056682;28;20037;-72
2023/06/13 06:08:31;;;;;;;1999.90;999.90;;;17.10;83.60;;;;;;5057251;28;20040;-72
2023/06/13 06:10:57;;;;;;;1999.90;999.90;;;17.20;84.90;;;;;;5056423;28;20096;-71
2023/06/13 06:13:22;;;;;;;1999.90;999.90;;;17.20;83.30;;;;;;5056698;28;20091;-71
2023/06/13 06:15:48;;;;;;;1999.90;999.90;;;17.30;82.70;;;;;;5056578;28;20026;-72
2023/06/13 06:18:13;;;;;;;1999.90;999.90;;;17.30;81.90;;;;;;5056773;28;20443;-74
2023/06/13 06:20:39;;;;;;;1999.90;999.90;;;17.40;80.20;;;;;;5056769;28;20443;-70
2023/06/13 06:23:05;;;;;;;1999.90;999.90;;;17.50;80.80;;;;;;5056615;28;20565;-71
2023/06/13 06:25:30;;;;;;;1999.90;999.90;;;17.60;81.20;;;;;;5056221;28;20083;-71
2023/06/13 06:27:56;;;;;;;1999.90;999.90;;;17.70;79.80;;;;;;5056426;28;20484;-70
2023/06/13 06:30:22;;;;;;;1999.90;999.90;;;17.80;79.30;;;;;;5056102;28;20093;-71
2023/06/13 06:32:48;;;;;;;1999.90;999.90;;;17.90;78.60;;;;;;5055808;28;20037;-70
2023/06/13 06:35:16;;;;;;;1999.90;999.90;;;18.00;78.80;;;;;;5056186;28;20029;-72
2023/06/13 06:37:46;;;;;;;1999.90;999.90;;;18.00;78.10;;;;;;5056389;28;20510;-70
2023/06/13 06:40:12;;;;;;;1999.90;999.90;;;18.20;77.20;;;;;;5056250;28;20041;-71
2023/06/13 06:42:38;;;;;;;1999.90;999.90;;;18.30;77.10;;;;;;5056089;28;20049;-72
2023/06/13 06:45:04;;;;;;;1999.90;999.90;;;18.30;76.40;;;;;;5056052;28;20038;-70
2023/06/13 06:47:30;;;;;;;1999.90;999.90;;;18.40;76.10;;;;;;5055934;28;20030;-71
2023/06/13 06:49:55;;;;;;;1999.90;999.90;;;18.50;76.40;;;;;;5056381;28;20499;-71
2023/06/13 06:52:21;;;;;;;1999.90;999.90;;;18.60;75.30;;;;;;5055620;28;20037;-71
2023/06/13 06:54:46;;;;;;;1999.90;999.90;;;18.70;74.70;;;;;;5054001;28;20431;-72
2023/06/13 06:57:12;;;;;;;1999.90;999.90;;;18.80;75.10;;;;;;5055766;28;20033;-71
2023/06/13 06:59:38;;;;;;;1999.90;999.90;;;18.90;73.90;;;;;;5056044;28;20033;-71
2023/06/13 07:02:03;;;;;;;1999.90;999.90;;;19.00;73.00;;;;;;5055726;28;20388;-72
2023/06/13 07:04:29;;;;;;;1999.90;999.90;;;19.10;72.60;;;;;;5055615;28;20025;-74
2023/06/13 07:06:55;;;;;;;1999.90;999.90;;;19.10;72.40;;;;;;5055767;28;20129;-71
2023/06/13 07:09:20;;;;;;;1999.90;999.90;;;19.30;73.80;;;;;;5056057;28;20105;-71
2023/06/13 07:11:46;;;;;;;1999.90;999.90;;;19.40;73.30;;;;;;5055288;28;20077;-71
2023/06/13 07:14:12;;;;;;;1999.90;999.90;;;19.60;72.70;;;;;;5055761;28;20117;-73
2023/06/13 07:16:37;;;;;;;1999.90;999.90;;;19.60;71.10;;;;;;5055813;28;20103;-71
2023/06/13 07:19:03;;;;;;;1999.90;999.90;;;19.80;71.10;;;;;;5055806;28;20040;-71
2023/06/13 07:21:29;;;;;;;1999.90;999.90;;;19.90;70.20;;;;;;5055636;28;20072;-73
2023/06/13 07:23:54;;;;;;;1999.90;999.90;;;19.90;70.10;;;;;;5055647;28;20029;-71
2023/06/13 07:26:21;;;;;;;1999.90;999.90;;;20.10;70.80;;;;;;5055752;28;20036;-70
2023/06/13 07:28:47;;;;;;;1999.90;999.90;;;20.30;69.40;;;;;;5055592;28;20033;-70
2023/06/13 07:31:12;;;;;;;1999.90;999.90;;;20.30;68.60;;;;;;5055443;28;20034;-70
2023/06/13 07:33:39;;;;;;;1999.90;999.90;;;20.30;69.70;;;;;;5055343;28;20502;-71
2023/06/13 07:36:05;;;;;;;1999.90;999.90;;;20.60;68.40;;;;;;5055672;28;20109;-70
2023/06/13 07:38:30;;;;;;;1999.90;999.90;;;20.80;67.80;;;;;;5055772;28;20489;-71
2023/06/13 07:40:56;;;;;;;1999.90;999.90;;;21.20;67.80;;;;;;5053867;28;20121;-73
2023/06/13 07:43:22;;;;;;;1999.90;999.90;;;21.30;67.10;;;;;;5054056;28;20496;-70
2023/06/13 07:45:47;;;;;;;1999.90;999.90;;;21.30;67.20;;;;;;5055874;28;20040;-71
2023/06/13 07:48:13;;;;;;;1999.90;999.90;;;21.60;67.20;;;;;;5055676;28;20037;-72
2023/06/13 07:50:42;;;;;;;1999.90;999.90;;;21.60;65.60;;;;;;5055611;28;20125;-71
2023/06/13 07:53:11;;;;;;;1999.90;999.90;;;21.70;66.10;;;;;;5054896;28;20029;-71
2023/06/13 07:55:36;;;;;;;1999.90;999.90;;;21.80;64.60;;;;;;5054909;28;20380;-71
2023/06/13 07:58:03;;;;;;;1999.90;999.90;;;21.60;64.20;;;;;;5055461;28;20049;-71
2023/06/13 08:00:29;;;;;;;1999.90;999.90;;;21.60;63.50;;;;;;5055553;28;20026;-71
2023/06/13 08:02:55;;;;;;;1999.90;999.90;;;21.80;63.50;;;;;;5052591;28;20041;-70
2023/06/13 08:05:21;;;;;;;1999.90;999.90;;;21.90;64.00;;;;;;5055297;28;20040;-73
2023/06/13 08:07:47;;;;;;;1999.90;999.90;;;21.90;62.70;;;;;;5053841;28;20037;-71
2023/06/13 08:10:13;;;;;;;1999.90;999.90;;;22.00;63.80;;;;;;5055517;28;20049;-73
2023/06/13 08:12:39;;;;;;;1999.90;999.90;;;22.00;62.80;;;;;;5054933;28;20037;-71
2023/06/13 08:15:05;;;;;;;1999.90;999.90;;;22.30;62.10;;;;;;5055095;28;20025;-74
2023/06/13 08:17:31;;;;;;;1999.90;999.90;;;22.50;62.40;;;;;;5055246;28;20029;-74
2023/06/13 08:19:57;;;;;;;1999.90;999.90;;;22.50;61.70;;;;;;5055294;28;20029;-74
2023/06/13 08:22:22;;;;;;;1999.90;999.90;;;22.60;63.80;;;;;;5053504;28;20037;-70
2023/06/13 08:24:48;;;;;;;1999.90;999.90;;;22.90;61.90;;;;;;5055251;28;20475;-73
2023/06/13 08:27:17;;;;;;;1999.90;999.90;;;22.80;61.70;;;;;;5055326;28;20516;-69
2023/06/13 08:29:43;;;;;;;1999.90;999.90;;;23.10;61.80;;;;;;5054447;28;20036;-70
2023/06/13 08:32:09;;;;;;;1999.90;999.90;;;23.10;61.70;;;;;;5054968;28;20052;-73
2023/06/13 08:34:34;;;;;;;1999.90;999.90;;;23.10;60.30;;;;;;5053541;28;20132;-72
2023/06/13 08:37:00;;;;;;;1999.90;999.90;;;23.40;60.00;;;;;;5054854;28;20038;-74
2023/06/13 08:39:26;;;;;;;1999.90;999.90;;;23.50;60.70;;;;;;5055060;28;20033;-76
2023/06/13 08:41:53;;;;;;;1999.90;999.90;;;23.70;59.50;;;;;;5054626;28;20033;-75
2023/06/13 08:44:20;;;;;;;1999.90;999.90;;;24.00;58.30;;;;;;5054838;28;20107;-73
2023/06/13 08:46:46;;;;;;;1999.90;999.90;;;23.80;57.70;;;;;;5051472;28;20039;-73
2023/06/13 08:49:11;;;;;;;1999.90;999.90;;;23.90;57.40;;;;;;5054619;28;20037;-72
2023/06/13 08:51:37;;;;;;;1999.90;999.90;;;23.80;57.40;;;;;;5054536;28;20537;-72
2023/06/13 08:54:04;;;;;;;1999.90;999.90;;;23.60;58.70;;;;;;5054451;28;20498;-72
2023/06/13 08:56:40;;;;;;;1999.90;999.90;;;23.90;57.50;;;;;;5052430;28;20112;-72
2023/06/13 08:59:10;;;;;;;1999.90;999.90;;;24.00;58.30;;;;;;5054464;28;20450;-73
2023/06/13 09:01:40;;;;;;;1999.90;999.90;;;24.00;57.50;;;;;;5052486;28;20048;-72
2023/06/13 09:04:10;;;;;;;1999.90;999.90;;;24.50;57.80;;;;;;5052519;28;20062;-72
2023/06/13 09:06:39;;;;;;;1999.90;999.90;;;24.80;57.20;;;;;;5053643;28;20092;-72
2023/06/13 09:09:06;;;;;;;1999.90;999.90;;;24.70;56.00;;;;;;5054441;28;20037;-72
2023/06/13 09:11:34;;;;;;;1999.90;999.90;;;24.70;57.60;;;;;;5054191;28;20022;-72
2023/06/13 09:14:01;;;;;;;1999.90;999.90;;;24.60;55.90;;;;;;5053975;28;20033;-73
2023/06/13 09:16:30;;;;;;;1999.90;999.90;;;25.00;56.10;;;;;;5057454;28;20064;-73
2023/06/13 09:18:56;;;;;;;1999.90;999.90;;;25.10;56.00;;;;;;5057405;28;20480;-73
2023/06/13 09:21:21;;;;;;;1999.90;999.90;;;24.90;55.60;;;;;;5056651;28;20029;-73
2023/06/13 09:23:48;;;;;;;1999.90;999.90;;;24.80;54.40;;;;;;5057255;28;20037;-72
2023/06/13 09:26:15;;;;;;;1999.90;999.90;;;24.70;55.30;;;;;;5057292;28;20025;-73
2023/06/13 09:28:42;;;;;;;1999.90;999.90;;;24.70;55.50;;;;;;5056989;28;20048;-73
2023/06/13 09:31:08;;;;;;;1999.90;999.90;;;25.00;55.70;;;;;;5056347;28;20403;-73
2023/06/13 09:33:34;;;;;;;1999.90;999.90;;;24.70;55.10;;;;;;5056900;28;20067;-73
2023/06/13 09:36:01;;;;;;;1999.90;999.90;;;24.90;55.70;;;;;;5057801;28;20572;-74
2023/06/13 09:38:26;;;;;;;1999.90;999.90;;;25.20;55.00;;;;;;5059181;28;20037;-74
2023/06/13 09:40:56;;;;;;;1999.90;999.90;;;25.40;54.20;;;;;;5057720;28;20069;-71
2023/06/13 09:43:23;;;;;;;1999.90;999.90;;;25.50;54.10;;;;;;5059525;28;20044;-74
2023/06/13 09:45:50;;;;;;;1999.90;999.90;;;25.40;52.70;;;;;;5056651;28;20487;-73
2023/06/13 09:48:17;;;;;;;1999.90;999.90;;;25.20;53.70;;;;;;5056617;28;20557;-74
2023/06/13 09:50:43;;;;;;;1999.90;999.90;;;25.30;53.50;;;;;;5056605;28;20037;-74
2023/06/13 09:53:09;;;;;;;1999.90;999.90;;;25.30;53.60;;;;;;5056089;28;20037;-74
2023/06/13 09:55:36;;;;;;;1999.90;999.90;;;25.50;53.40;;;;;;5054550;28;20049;-72
2023/06/13 09:58:02;;;;;;;1999.90;999.90;;;25.70;53.60;;;;;;5056673;28;20073;-72
2023/06/13 10:00:28;;;;;;;1999.90;999.90;;;25.80;53.70;;;;;;5056512;28;20037;-73
2023/06/13 10:02:54;;;;;;;1999.90;999.90;;;25.90;53.20;;;;;;5055627;28;20029;-73
2023/06/13 10:05:20;;;;;;;1999.90;999.90;;;25.90;52.60;;;;;;5055947;28;20033;-72
2023/06/13 10:07:46;;;;;;;1999.90;999.90;;;26.00;52.40;;;;;;5054900;28;20466;-73
2023/06/13 10:10:11;;;;;;;1999.90;999.90;;;26.10;51.80;;;;;;5056321;28;20038;-73
2023/06/13 10:12:43;;;;;;;1999.90;999.90;;;26.00;51.80;;;;;;5055788;28;20041;-73
2023/06/13 10:15:12;;;;;;;1999.90;999.90;;;26.30;53.40;;;;;;5056187;28;20034;-72
2023/06/13 10:17:41;;;;;;;1999.90;999.90;;;26.20;53.00;;;;;;5056023;28;20037;-72
2023/06/13 10:20:11;;;;;;;1999.90;999.90;;;26.20;52.50;;;;;;5056187;28;20026;-72
2023/06/13 10:22:38;;;;;;;1999.90;999.90;;;26.30;51.00;;;;;;5055298;28;20037;-72
2023/06/13 10:25:10;;;;;;;1999.90;999.90;;;26.20;51.80;;;;;;5054331;28;20039;-73
2023/06/13 10:27:40;;;;;;;1999.90;999.90;;;26.60;51.40;;;;;;5054218;28;20030;-73
2023/06/13 10:30:34;;;;;;;1999.90;999.90;;;26.30;50.40;;;;;;5056218;28;20033;-72
2023/06/13 10:33:20;;;;;;;1999.90;999.90;;;26.20;51.00;;;;;;5054424;28;20029;-72
2023/06/13 10:36:03;;;;;;;1999.90;999.90;;;26.40;51.10;;;;;;5056362;28;20030;-72
2023/06/13 10:38:48;;;;;;;1999.90;999.90;;;26.60;49.60;;;;;;5056591;28;20041;-72
2023/06/13 10:41:45;;;;;;;1999.90;999.90;;;27.00;49.00;;;;;;5056184;28;20033;-72
2023/06/13 10:44:18;;;;;;;1999.90;999.90;;;26.50;48.60;;;;;;5055549;28;20034;-72
2023/06/13 10:46:45;;;;;;;1999.90;999.90;;;26.60;49.50;;;;;;5056450;28;20021;-72
2023/06/13 10:49:17;;;;;;;1999.90;999.90;;;26.80;51.10;;;;;;5051826;28;20042;-72
2023/06/13 10:51:45;;;;;;;1999.90;999.90;;;27.20;49.20;;;;;;5055717;28;20029;-72
2023/06/13 10:54:12;;;;;;;1999.90;999.90;;;27.20;48.10;;;;;;5054071;28;20817;-72
2023/06/13 10:56:41;;;;;;;1999.90;999.90;;;27.40;48.10;;;;;;5092191;22;20544;-73
2023/06/13 10:59:11;;;;;;;1999.90;999.90;;;27.60;49.40;;;;;;5054950;28;20474;-74
2023/06/13 11:01:41;;;;;;;1999.90;999.90;;;27.60;48.10;;;;;;5055057;28;20089;-74
2023/06/13 11:04:19;;;;;;;1999.90;999.90;;;28.00;49.40;;;;;;5054925;28;20037;-74
2023/06/13 11:06:49;;;;;;;1999.90;999.90;;;28.30;47.70;;;;;;5054589;28;20149;-74
2023/06/13 11:09:17;;;;;;;1999.90;999.90;;;28.00;47.20;;;;;;5055327;28;20473;-74
2023/06/13 11:12:01;;;;;;;1999.90;999.90;;;27.70;47.80;;;;;;5054649;28;20036;-74
2023/06/13 11:14:38;;;;;;;1999.90;999.90;;;27.60;50.40;;;;;;5055615;28;20474;-75
2023/06/13 11:17:03;;;;;;;1999.90;999.90;;;27.90;47.90;;;;;;5055676;28;20092;-74
2023/06/13 11:19:33;;;;;;;1999.90;999.90;;;27.90;47.40;;;;;;5054104;28;20129;-74
2023/06/13 11:21:59;;;;;;;1999.90;999.90;;;27.60;47.50;;;;;;5055736;28;20022;-74
2023/06/13 11:24:27;;;;;;;1999.90;999.90;;;27.50;50.20;;;;;;5055593;28;20396;-74
2023/06/13 11:26:55;;;;;;;1999.90;999.90;;;27.80;48.70;;;;;;5055612;28;20022;-74
2023/06/13 11:29:21;;;;;;;1999.90;999.90;;;27.90;49.20;;;;;;5055072;28;20069;-74
2023/06/13 11:31:51;;;;;;;1999.90;999.90;;;28.20;48.90;;;;;;5055352;28;20447;-74
2023/06/13 11:34:18;;;;;;;1999.90;999.90;;;28.60;48.40;;;;;;5055290;28;20463;-74
2023/06/13 11:36:45;;;;;;;1999.90;999.90;;;28.80;48.20;;;;;;5054871;28;20029;-74
2023/06/13 11:39:15;;;;;;;1999.90;999.90;;;29.00;47.40;;;;;;5055181;28;20038;-74
2023/06/13 11:41:43;;;;;;;1999.90;999.90;;;29.20;47.10;;;;;;5054813;28;20053;-75
2023/06/13 11:44:09;;;;;;;1999.90;999.90;;;29.20;45.40;;;;;;5069096;28;20613;-73
2023/06/13 11:46:41;;;;;;;1999.90;999.90;;;29.20;46.20;;;;;;5072094;28;20048;-79
2023/06/13 11:49:12;;;;;;;1999.90;999.90;;;29.30;46.50;;;;;;5076073;28;20032;-79
2023/06/13 11:51:37;;;;;;;1999.90;999.90;;;29.50;47.60;;;;;;5074069;28;20037;-78
2023/06/13 11:54:03;;;;;;;1999.90;999.90;;;29.20;48.10;;;;;;5072959;28;20033;-78
2023/06/13 11:56:30;;;;;;;1999.90;999.90;;;29.40;46.70;;;;;;5074897;28;20375;-78
2023/06/13 11:58:57;;;;;;;1999.90;999.90;;;29.60;46.10;;;;;;5076734;28;20032;-78